FOLSOM LAKE (FOL)

Elevation: 466' · AMERICAN R basin · Operator: US Bureau of Reclamation

Provisional data, subject to change.
Query executed Sunday at 3:45:38   clock

Select a sensor type for a plot of data.
Note: Reservoir Flows are daily averages.

Earlier

Date RES ELE    STORAGE    RES CHG    TOC STO    ABV TOC    OUTFLOW    INFLOW    EVAP    FNF    RIV REL    PPT INC    SPILL    DC PUMP    DIS PWR   
 FEET   AF   AF   AF   AF   CFS   CFS   CFS   CFS   CFS   INCHES   CFS   CFS   CFS  
11/22/2014 383.93 282061 -712 577000 -- 1250 895 4 1999 492 0.00 0 68 690
11/23/2014 383.89 281843 -218 577000 -295157 1130 1020 0 2038 492 0.31 0 74 564
11/24/2014 383.84 281571 -272 577000 -295429 869 737 5 804 491 0.00 0 71 307
11/25/2014 383.72 280918 -653 577000 -296082 1089 769 9 1041 161 0.00 0 72 856
11/26/2014 383.57 280102 -816 -- -- 1025 623 9 170 0 0.00 0 74 951
11/27/2014 383.41 279231 -871 577000 -- 1001 569 7 508 0 0.00 0 71 930
11/28/2014 383.19 278034 -1197 577000 -- 1136 542 9 261 0 0.00 0 64 1072
11/29/2014 383.18 277980 -54 577000 -- 1029 1002 0 954 0 0.26 0 65 964
11/30/2014 383.22 278197 217 577000 -298803 975 1084 0 1016 0 0.26 0 66 909
12/01/2014 383.51 279775 1578 577000 -297225 804 1600 0 1442 0 0.21 0 70 734
12/02/2014 383.75 281082 1307 577000 -295918 933 1597 5 2157 0 0.00 0 64 869
12/03/2014 385.32 289742 8660 577000 -287258 638 5010 6 8493 0 0.00 0 55 583
12/04/2014 387.98 304814 15072 577000 -272186 274 7873 0 11316 0 3.84 0 56 218
12/05/2014 388.98 310618 5804 577000 -- 850 3891 115 4813 0 0.03 0 60 790
12/06/2014 389.83 315614 4996 577000 -- 759 3394 116 4061 0 0.03 0 64 695
12/07/2014 390.31 318458 2844 577000 -258542 877 2428 117 2405 0 0.03 0 64 813
12/08/2014 390.75 321076 2618 577000 -255924 931 2265 14 1599 0 0.00 0 66 865
12/09/2014 391.40 324974 3898 577000 -252026 913 2890 12 1924 0 0.00 0 58 855
12/10/2014 391.65 326481 1507 577000 -250519 1180 1944 4 1553 0 0.00 0 54 1126
12/11/2014 392.87 333896 7415 -- -- 529 4271 4 4697 0 0.00 0 57 472
12/12/2014 396.26 355087 21191 577000 -- 111 10795 0 12638 0 2.63 0 54 57
12/13/2014 397.45 362723 7636 577000 -- 578 4428 0 4810 0 0.99 0 56 522
12/14/2014 398.01 366341 3618 577000 -- 767 2591 0 2418 0 0.99 0 61 706
12/15/2014 398.63 370391 4050 577000 -206609 821 2867 4 2718 0 0.00 0 60 761
12/16/2014 398.98 372677 2286 577000 -204323 1259 2412 0 -- 0 0.69 0 54 1205
12/17/2014 399.58 376637 3960 577000 -200363 774 2774 4 -- 0 0.46 0 54 720
12/18/2014 400.10 380078 3441 577000 -196922 858 2595 2 -- 0 0.04 0 53 805
12/19/2014 400.79 384686 4608 -- -- 528 2856 5 -- 0 0.00 0 56 472
12/20/2014 -- -- -- -- -- -- -- -- -- -- -- -- -- --
12/21/2014 -- -- -- -- -- -- -- -- -- -- -- -- -- --

Later | Latest

Warning! This data is preliminary and subject to revision.

Show FOL Map | Plot FOL Data | 1 Month FOL Data | Real-Time FOL Data | FOL Info